Time;durP1;ratioP1;P1;durP2;ratioP2;P2;SDS_P1;SDS_P2;PMS_P1;PMS_P2;Temp;Humidity;BMP_temperature;BMP_pressure;BME280_temperature;BME280_humidity;BME280_pressure;Samples;Min_cycle;Max_cycle;Signal;HPM_P1;HPM_P2
2023/10/10 00:01:22;;;;;;;22.48;10.63;;;17.50;96.70;;;;;;4264868;27;20096;-59
2023/10/10 00:03:30;;;;;;;30.20;12.40;;;17.60;96.80;;;;;;4263929;27;20210;-59
2023/10/10 00:05:36;;;;;;;21.35;10.60;;;17.50;96.80;;;;;;4264716;27;20047;-59
2023/10/10 00:07:40;;;;;;;23.40;10.50;;;17.50;96.90;;;;;;4265026;27;20457;-57
2023/10/10 00:09:44;;;;;;;18.73;10.40;;;17.50;96.90;;;;;;4264575;27;20094;-57
2023/10/10 00:11:47;;;;;;;26.75;11.95;;;17.40;96.90;;;;;;4265085;27;20046;-57
2023/10/10 00:14:05;;;;;;;31.58;10.95;;;17.40;97.00;;;;;;4264909;27;20097;-57
2023/10/10 00:16:07;;;;;;;23.90;10.23;;;17.40;97.00;;;;;;4246582;27;20043;-57
2023/10/10 00:18:11;;;;;;;25.00;11.43;;;17.40;97.00;;;;;;4264688;27;20372;-58
2023/10/10 00:20:16;;;;;;;23.95;11.57;;;17.40;97.00;;;;;;4264704;27;20460;-59
2023/10/10 00:22:26;;;;;;;19.98;10.63;;;17.40;97.10;;;;;;4264810;27;20038;-58
2023/10/10 00:24:31;;;;;;;21.05;10.77;;;17.40;97.20;;;;;;4264579;27;20038;-59
2023/10/10 00:26:34;;;;;;;23.00;11.55;;;17.40;97.40;;;;;;4264597;27;20542;-59
2023/10/10 00:28:44;;;;;;;19.95;9.95;;;17.40;97.30;;;;;;4264474;27;20115;-59
2023/10/10 00:30:46;;;;;;;22.63;10.90;;;17.40;97.30;;;;;;4264809;27;20039;-58
2023/10/10 00:32:50;;;;;;;19.35;12.02;;;17.30;97.40;;;;;;4264753;27;20204;-58
2023/10/10 00:34:52;;;;;;;22.10;11.67;;;17.30;97.50;;;;;;4263874;27;20476;-58
2023/10/10 00:37:02;;;;;;;22.48;13.02;;;17.30;97.50;;;;;;4246271;27;20112;-59
2023/10/10 00:39:22;;;;;;;23.67;12.60;;;17.30;97.60;;;;;;4265077;27;20569;-59
2023/10/10 00:41:26;;;;;;;28.15;13.40;;;17.30;97.70;;;;;;4265778;27;20410;-59
2023/10/10 00:43:31;;;;;;;27.60;13.32;;;17.30;97.80;;;;;;4265486;27;20138;-62
2023/10/10 00:45:36;;;;;;;27.52;13.60;;;17.30;97.80;;;;;;4264589;27;20057;-59
2023/10/10 00:47:41;;;;;;;;;;;17.20;97.90;;;;;;4265164;27;20043;-59
2023/10/10 00:49:45;;;;;;;;;;;17.20;98.00;;;;;;4265086;27;20391;-59
2023/10/10 00:51:47;;;;;;;21.85;12.18;;;17.20;98.20;;;;;;4264339;27;20305;-57
2023/10/10 00:54:09;;;;;;;25.52;12.48;;;17.10;98.30;;;;;;4264183;27;20126;-57
2023/10/10 00:56:13;;;;;;;28.10;13.60;;;17.10;98.20;;;;;;4264782;27;20054;-58
2023/10/10 00:58:22;;;;;;;25.33;11.60;;;17.10;98.20;;;;;;4264588;27;20093;-57
2023/10/10 01:00:30;;;;;;;25.77;12.23;;;17.10;98.10;;;;;;4264664;27;20043;-57
2023/10/10 01:02:36;;;;;;;24.25;12.27;;;17.10;98.30;;;;;;4264307;27;20043;-56
2023/10/10 01:04:48;;;;;;;22.17;11.52;;;17.10;98.00;;;;;;4264222;27;20047;-56
2023/10/10 01:06:51;;;;;;;24.15;11.90;;;17.10;98.00;;;;;;4246322;27;20488;-57
2023/10/10 01:08:58;;;;;;;26.45;11.80;;;17.10;98.00;;;;;;4263946;27;20129;-56
2023/10/10 01:11:02;;;;;;;25.70;11.60;;;17.10;98.00;;;;;;4264437;27;20456;-56
2023/10/10 01:13:09;;;;;;;21.50;11.30;;;17.10;98.10;;;;;;4264301;27;20474;-56
2023/10/10 01:15:25;;;;;;;22.73;11.43;;;17.00;98.10;;;;;;4266195;27;20059;-56
2023/10/10 01:17:29;;;;;;;;;;;17.00;98.10;;;;;;4267917;27;20389;-56
2023/10/10 01:19:35;;;;;;;24.65;11.75;;;17.00;98.30;;;;;;4267424;27;19918;-58
2023/10/10 01:21:43;;;;;;;;;;;16.90;98.30;;;;;;4268131;27;20125;-57
2023/10/10 01:23:45;;;;;;;20.83;10.75;;;16.90;98.40;;;;;;4267094;27;19925;-56
2023/10/10 01:25:48;;;;;;;24.05;10.85;;;16.90;98.40;;;;;;4267298;27;20053;-56
2023/10/10 01:27:54;;;;;;;22.65;11.65;;;16.80;98.40;;;;;;4267456;27;20392;-56
2023/10/10 01:30:18;;;;;;;18.50;11.18;;;16.90;98.50;;;;;;4267376;27;20046;-56
2023/10/10 01:32:20;;;;;;;22.52;11.77;;;16.90;98.50;;;;;;4267712;27;20050;-60
2023/10/10 01:34:31;;;;;;;25.40;11.30;;;16.90;98.50;;;;;;4267663;27;20074;-57
2023/10/10 01:36:34;;;;;;;21.27;11.23;;;16.80;98.50;;;;;;4267118;27;20046;-56
2023/10/10 01:39:19;;;;;;;25.42;12.18;;;16.80;98.60;;;;;;4267199;27;20039;-56
2023/10/10 01:41:31;;;;;;;22.92;10.40;;;16.90;98.60;;;;;;4267970;27;20526;-60
2023/10/10 01:43:33;;;;;;;25.67;10.88;;;16.80;98.60;;;;;;4267876;27;20062;-59
2023/10/10 01:45:41;;;;;;;25.98;11.98;;;16.80;98.60;;;;;;4267273;27;20039;-58
2023/10/10 01:47:56;;;;;;;23.38;11.48;;;16.80;98.70;;;;;;4267674;27;20533;-60
2023/10/10 01:49:59;;;;;;;20.85;11.07;;;16.80;98.60;;;;;;4267094;27;20051;-59
2023/10/10 01:52:01;;;;;;;23.20;11.02;;;16.80;98.60;;;;;;4266558;27;20046;-59
2023/10/10 01:54:15;;;;;;;20.73;10.32;;;16.80;98.60;;;;;;4266888;27;20042;-58
2023/10/10 01:56:17;;;;;;;19.75;10.70;;;16.80;98.60;;;;;;4267158;27;20077;-58
2023/10/10 01:58:20;;;;;;;17.77;10.55;;;16.70;98.70;;;;;;4266716;27;20418;-58
2023/10/10 02:00:26;;;;;;;21.77;10.82;;;16.70;98.70;;;;;;4266778;27;20395;-63
2023/10/10 02:02:30;;;;;;;22.75;11.32;;;16.80;98.80;;;;;;4266782;27;20050;-58
2023/10/10 02:04:35;;;;;;;24.40;11.50;;;16.70;98.80;;;;;;4266603;27;20420;-59
2023/10/10 02:06:40;;;;;;;21.77;11.38;;;16.70;98.80;;;;;;4266602;27;20042;-59
2023/10/10 02:08:44;;;;;;;25.75;11.23;;;16.70;98.90;;;;;;4266707;27;20096;-58
2023/10/10 02:10:49;;;;;;;21.63;11.02;;;16.70;98.90;;;;;;4266516;27;20089;-59
2023/10/10 02:12:52;;;;;;;24.67;11.50;;;16.70;99.00;;;;;;4266308;27;20066;-59
2023/10/10 02:14:54;;;;;;;19.17;10.85;;;16.60;98.90;;;;;;4266669;27;20042;-59
2023/10/10 02:17:06;;;;;;;20.92;10.13;;;16.60;98.90;;;;;;4266545;27;20370;-58
2023/10/10 02:19:15;;;;;;;22.77;10.70;;;16.60;98.90;;;;;;4266805;27;20050;-59
2023/10/10 02:21:31;;;;;;;18.38;10.00;;;16.60;99.00;;;;;;4266070;27;20046;-59
2023/10/10 02:23:34;;;;;;;21.25;10.15;;;16.60;98.90;;;;;;4266448;27;20458;-58
2023/10/10 02:25:39;;;;;;;18.10;10.63;;;16.60;99.00;;;;;;4266159;27;20053;-59
2023/10/10 02:27:54;;;;;;;18.50;9.57;;;16.60;99.00;;;;;;4266232;27;20062;-59
2023/10/10 02:30:03;;;;;;;18.23;10.20;;;16.60;99.10;;;;;;4267913;27;20047;-67
2023/10/10 02:34:11;;;;;;;18.40;8.98;;;16.50;99.20;;;;;;4266276;27;20062;-59
2023/10/10 02:36:13;;;;;;;23.40;10.32;;;16.50;99.10;;;;;;4266287;27;20478;-59
2023/10/10 02:38:16;;;;;;;22.55;10.02;;;16.50;99.10;;;;;;4266346;27;20046;-58
2023/10/10 02:40:19;;;;;;;17.08;9.40;;;16.50;99.10;;;;;;4247661;27;20142;-59
2023/10/10 02:42:23;;;;;;;19.65;9.50;;;16.50;99.10;;;;;;4267238;27;20042;-60
2023/10/10 02:44:38;;;;;;;17.27;9.88;;;16.50;99.10;;;;;;4267785;27;20117;-60
2023/10/10 02:46:42;;;;;;;17.05;10.25;;;16.50;99.20;;;;;;4267677;27;20046;-65
2023/10/10 02:48:44;;;;;;;16.98;9.75;;;16.40;99.20;;;;;;4267619;27;20046;-59
2023/10/10 02:50:46;;;;;;;17.95;9.95;;;16.40;99.10;;;;;;4267012;27;20054;-59
2023/10/10 02:52:59;;;;;;;17.33;9.38;;;16.40;99.10;;;;;;4266219;27;20055;-57
2023/10/10 02:55:09;;;;;;;23.02;10.13;;;16.50;99.30;;;;;;4265999;27;20069;-60
2023/10/10 02:59:38;;;;;;;18.75;9.65;;;16.40;99.30;;;;;;4266005;27;20070;-59
2023/10/10 03:04:03;;;;;;;20.55;9.32;;;16.40;99.20;;;;;;4265369;27;20046;-59
2023/10/10 03:06:06;;;;;;;15.60;9.25;;;16.40;99.40;;;;;;4265459;27;20496;-59
2023/10/10 03:08:18;;;;;;;14.50;9.18;;;16.40;99.40;;;;;;4265504;27;20046;-54
2023/10/10 03:10:35;;;;;;;14.70;9.15;;;16.30;99.50;;;;;;4265577;27;20388;-57
2023/10/10 03:12:38;;;;;;;16.25;8.82;;;16.30;99.50;;;;;;4265551;27;20099;-57
2023/10/10 03:14:43;;;;;;;16.08;9.57;;;16.30;99.70;;;;;;4247362;27;20047;-57
2023/10/10 03:16:59;;;;;;;17.27;8.88;;;16.20;99.60;;;;;;4265561;27;20133;-56
2023/10/10 03:25:23;;;;;;;15.10;8.38;;;16.20;99.70;;;;;;4265315;27;20117;-59
2023/10/10 03:29:49;;;;;;;22.30;9.27;;;16.30;99.80;;;;;;4265391;27;20053;-59
2023/10/10 03:38:43;;;;;;;15.02;9.32;;;16.20;99.80;;;;;;4264481;27;20057;-59
2023/10/10 03:41:11;;;;;;;14.55;9.32;;;16.20;99.80;;;;;;4265201;27;20496;-59
2023/10/10 05:24:17;;;;;;;21.10;9.68;;;15.90;99.90;;;;;;4268143;27;20069;-59
2023/10/10 05:26:19;;;;;;;21.17;10.18;;;15.80;99.90;;;;;;4268843;27;20049;-59
2023/10/10 05:28:23;;;;;;;22.10;10.38;;;15.80;99.90;;;;;;4268002;27;20392;-59
2023/10/10 05:30:25;;;;;;;21.88;10.95;;;15.80;99.90;;;;;;4266984;27;20053;-59
2023/10/10 05:32:30;;;;;;;21.33;9.63;;;15.90;99.90;;;;;;4267244;27;20066;-60
2023/10/10 05:34:34;;;;;;;26.80;11.90;;;15.90;99.90;;;;;;4267115;27;20053;-57
2023/10/10 05:36:36;;;;;;;29.13;10.65;;;15.80;99.90;;;;;;4267482;27;20047;-59
2023/10/10 05:38:39;;;;;;;33.05;10.45;;;15.90;99.90;;;;;;4267390;27;20066;-56
2023/10/10 05:40:43;;;;;;;27.88;12.05;;;15.80;99.90;;;;;;4267156;27;20074;-56
2023/10/10 05:42:45;;;;;;;37.22;13.18;;;15.90;99.90;;;;;;4266994;27;20062;-56
2023/10/10 05:44:49;;;;;;;40.53;11.43;;;15.80;99.90;;;;;;4248256;27;20046;-58
2023/10/10 05:46:52;;;;;;;31.65;11.73;;;15.80;99.90;;;;;;4267383;27;20077;-57
2023/10/10 05:48:56;;;;;;;40.88;13.23;;;15.80;99.90;;;;;;4267159;27;20063;-60
2023/10/10 05:50:59;;;;;;;35.97;11.70;;;15.70;99.90;;;;;;4266805;27;20051;-60
2023/10/10 05:53:01;;;;;;;29.98;11.85;;;15.80;99.90;;;;;;4266975;27;20126;-58
2023/10/10 05:55:03;;;;;;;35.65;12.45;;;15.70;99.90;;;;;;4268260;27;20053;-61
2023/10/10 05:57:10;;;;;;;26.58;10.50;;;15.70;99.90;;;;;;4269175;27;20061;-56
2023/10/10 05:59:17;;;;;;;28.08;12.02;;;15.80;99.90;;;;;;4268459;27;20408;-56
2023/10/10 06:01:24;;;;;;;38.03;11.18;;;15.70;99.90;;;;;;4265743;27;20070;-57
2023/10/10 06:03:26;;;;;;;37.40;11.68;;;15.70;99.90;;;;;;4267237;27;20394;-57
2023/10/10 06:05:29;;;;;;;38.47;13.10;;;15.70;99.90;;;;;;4248491;27;20047;-57
2023/10/10 06:07:32;;;;;;;27.08;11.13;;;15.80;99.90;;;;;;4248872;27;20082;-61
2023/10/10 06:09:38;;;;;;;26.33;11.75;;;15.80;99.90;;;;;;4268389;27;20050;-57
2023/10/10 06:11:42;;;;;;;45.13;12.60;;;15.80;99.90;;;;;;4267518;27;20043;-59
2023/10/10 06:13:46;;;;;;;39.63;13.35;;;15.80;99.90;;;;;;4266727;27;20067;-59
2023/10/10 06:15:50;;;;;;;44.42;13.68;;;15.80;99.90;;;;;;4266768;27;20047;-60
2023/10/10 06:17:57;;;;;;;46.17;13.75;;;15.80;99.90;;;;;;4266632;27;20042;-59
2023/10/10 06:19:59;;;;;;;34.03;13.45;;;15.80;99.90;;;;;;4266499;27;20184;-59
2023/10/10 06:22:08;;;;;;;62.47;15.50;;;15.80;99.90;;;;;;4266558;27;20062;-59
2023/10/10 06:24:12;;;;;;;80.68;17.65;;;15.80;99.90;;;;;;4266776;27;20042;-57
2023/10/10 06:26:21;;;;;;;54.38;16.45;;;15.90;99.90;;;;;;4266300;27;20126;-56
2023/10/10 06:28:25;;;;;;;55.85;15.93;;;16.00;99.90;;;;;;4266264;27;20451;-56
2023/10/10 06:30:29;;;;;;;60.75;17.08;;;16.00;99.90;;;;;;4248049;27;20050;-56
2023/10/10 06:32:31;;;;;;;60.15;17.30;;;16.10;99.90;;;;;;4266128;27;20050;-56
2023/10/10 06:34:36;;;;;;;55.15;16.70;;;16.10;99.90;;;;;;4266327;27;20043;-57
2023/10/10 06:36:47;;;;;;;58.90;18.10;;;16.20;99.90;;;;;;4266474;27;20050;-56
2023/10/10 06:38:59;;;;;;;55.33;17.52;;;16.20;99.90;;;;;;4266237;27;20119;-56
2023/10/10 06:41:11;;;;;;;42.05;15.88;;;16.30;99.90;;;;;;4265976;27;20483;-57
2023/10/10 06:43:15;;;;;;;48.42;17.92;;;16.30;99.90;;;;;;4266277;27;20139;-56
2023/10/10 06:45:22;;;;;;;43.90;15.50;;;16.30;99.90;;;;;;4266355;27;20053;-57
2023/10/10 06:47:28;;;;;;;49.15;17.88;;;16.40;99.70;;;;;;4266135;27;20507;-57
2023/10/10 06:49:43;;;;;;;45.90;16.50;;;16.40;99.50;;;;;;4266100;27;20045;-57
2023/10/10 06:51:46;;;;;;;48.45;16.73;;;16.50;99.50;;;;;;4266088;27;20526;-57
2023/10/10 06:53:54;;;;;;;48.22;16.42;;;16.50;99.90;;;;;;4266043;27;20480;-57
2023/10/10 06:56:14;;;;;;;55.83;18.25;;;16.50;99.90;;;;;;4265702;27;20070;-56
2023/10/10 06:58:18;;;;;;;42.53;16.08;;;16.60;99.90;;;;;;4266169;27;20047;-57
2023/10/10 07:00:21;;;;;;;48.83;15.67;;;16.60;99.90;;;;;;4266084;27;20121;-58
2023/10/10 07:02:26;;;;;;;45.28;17.02;;;16.70;99.80;;;;;;4265715;27;20468;-57
2023/10/10 07:04:28;;;;;;;40.90;14.57;;;16.70;99.70;;;;;;4230364;28;20097;-59
2023/10/10 07:06:30;;;;;;;50.35;17.40;;;16.80;99.60;;;;;;4265736;27;20042;-59
2023/10/10 07:08:34;;;;;;;41.28;15.25;;;16.90;99.70;;;;;;4265594;27;20042;-59
2023/10/10 07:10:36;;;;;;;46.45;17.15;;;17.00;99.50;;;;;;4265113;27;20048;-59
2023/10/10 07:12:39;;;;;;;53.78;19.02;;;17.10;99.30;;;;;;4265670;27;20087;-62
2023/10/10 07:14:47;;;;;;;46.83;16.35;;;17.10;99.20;;;;;;4265736;27;20042;-59
2023/10/10 07:16:49;;;;;;;35.78;15.35;;;17.20;99.00;;;;;;4262702;27;20122;-58
2023/10/10 07:18:56;;;;;;;39.95;14.07;;;17.30;98.90;;;;;;4248303;27;20058;-59
2023/10/10 07:21:04;;;;;;;46.20;16.23;;;17.30;98.80;;;;;;4248497;27;20066;-59
2023/10/10 07:23:07;;;;;;;45.10;16.50;;;17.30;98.90;;;;;;4248248;27;20057;-59
2023/10/10 07:25:18;;;;;;;34.75;13.80;;;17.40;99.10;;;;;;4248130;27;20039;-59
2023/10/10 07:27:24;;;;;;;52.58;17.23;;;17.40;98.90;;;;;;4248361;27;20078;-59
2023/10/10 07:29:27;;;;;;;51.28;16.10;;;17.50;98.60;;;;;;4248189;27;20039;-58
2023/10/10 07:31:34;;;;;;;45.28;16.50;;;17.60;98.50;;;;;;4248157;27;20070;-59
2023/10/10 07:33:40;;;;;;;44.58;15.38;;;17.60;98.30;;;;;;4248044;27;20100;-59
2023/10/10 07:35:44;;;;;;;42.60;14.02;;;17.70;98.10;;;;;;4248009;27;20399;-59
2023/10/10 07:37:47;;;;;;;34.30;13.80;;;17.70;98.10;;;;;;4248037;27;20490;-59
2023/10/10 07:41:59;;;;;;;51.88;17.15;;;17.90;98.00;;;;;;4248266;27;20047;-59
2023/10/10 07:44:06;;;;;;;70.20;18.33;;;17.90;97.80;;;;;;4248051;27;20421;-60
2023/10/10 07:46:17;;;;;;;93.78;26.75;;;17.90;98.00;;;;;;4248784;27;20051;-60
2023/10/10 07:50:47;;;;;;;101.55;24.55;;;18.00;97.90;;;;;;4248053;27;20209;-60
2023/10/10 07:52:55;;;;;;;102.07;24.77;;;18.10;97.80;;;;;;4247793;27;20079;-60
2023/10/10 07:55:04;;;;;;;106.05;27.02;;;18.10;97.70;;;;;;4247756;27;20074;-60
2023/10/10 07:57:12;;;;;;;86.22;26.25;;;18.20;97.50;;;;;;4247866;27;20047;-59
2023/10/10 07:59:19;;;;;;;84.82;25.48;;;18.20;97.50;;;;;;4247960;27;20492;-59
2023/10/10 08:01:27;;;;;;;72.53;22.98;;;18.30;97.40;;;;;;4247958;27;20047;-60
2023/10/10 08:03:34;;;;;;;68.15;23.50;;;18.30;97.30;;;;;;4247779;27;20118;-59
2023/10/10 08:05:42;;;;;;;56.60;23.65;;;18.40;97.20;;;;;;4247542;27;20071;-59
2023/10/10 08:07:45;;;;;;;80.50;25.63;;;18.40;97.10;;;;;;4247435;27;20138;-59
2023/10/10 08:10:13;;;;;;;90.43;24.38;;;18.40;96.80;;;;;;4247456;27;20047;-60
2023/10/10 08:12:16;;;;;;;74.60;22.85;;;18.50;96.80;;;;;;4229529;28;20468;-60
2023/10/10 08:14:30;;;;;;;62.50;23.60;;;18.50;96.70;;;;;;4247827;27;20074;-60
2023/10/10 08:16:34;;;;;;;50.90;21.08;;;18.50;96.70;;;;;;4247517;27;20472;-60
2023/10/10 08:22:59;;;;;;;61.78;22.27;;;18.60;96.60;;;;;;4247052;28;20047;-60
2023/10/10 08:25:08;;;;;;;58.17;23.00;;;18.60;96.60;;;;;;4247054;27;20047;-60
2023/10/10 08:27:15;;;;;;;54.45;21.30;;;18.70;96.70;;;;;;4247613;28;20085;-59
2023/10/10 08:29:26;;;;;;;55.63;20.98;;;18.80;96.60;;;;;;4247512;28;20066;-60
2023/10/10 08:31:29;;;;;;;52.50;20.63;;;18.80;96.60;;;;;;4247458;28;20501;-59
2023/10/10 08:33:36;;;;;;;64.13;21.27;;;18.80;96.60;;;;;;4247330;28;20047;-60
2023/10/10 08:35:38;;;;;;;60.47;20.95;;;18.90;96.60;;;;;;4247575;28;20047;-59
2023/10/10 08:37:45;;;;;;;62.78;19.33;;;19.00;96.50;;;;;;4247192;28;20488;-60
2023/10/10 08:39:49;;;;;;;43.78;17.15;;;19.00;96.20;;;;;;4247869;28;20051;-59
2023/10/10 08:41:53;;;;;;;44.85;16.88;;;19.10;96.10;;;;;;4247459;28;20047;-59
2023/10/10 08:44:06;;;;;;;40.28;15.35;;;19.20;96.00;;;;;;4247490;28;20043;-59
2023/10/10 08:46:12;;;;;;;36.00;13.65;;;19.20;95.30;;;;;;4247268;28;20043;-62
2023/10/10 08:48:16;;;;;;;34.85;14.60;;;19.30;95.40;;;;;;4247368;28;20055;-59
2023/10/10 08:50:19;;;;;;;35.08;14.48;;;19.30;95.40;;;;;;4247287;28;20104;-59
2023/10/10 08:52:23;;;;;;;33.40;14.25;;;19.40;95.40;;;;;;4246928;28;20055;-59
2023/10/10 08:54:25;;;;;;;36.75;13.55;;;19.40;95.40;;;;;;4247447;28;20039;-59
2023/10/10 08:56:33;;;;;;;29.75;12.13;;;19.40;95.20;;;;;;4247352;28;20082;-60
2023/10/10 08:58:36;;;;;;;33.50;11.40;;;19.50;95.20;;;;;;4247601;28;20059;-59
2023/10/10 09:00:39;;;;;;;29.48;11.07;;;19.50;95.10;;;;;;4247381;28;20442;-58
2023/10/10 09:02:41;;;;;;;36.88;12.27;;;19.50;94.90;;;;;;4247313;28;20047;-59
2023/10/10 09:04:43;;;;;;;32.95;12.48;;;19.60;95.00;;;;;;4247156;28;20047;-59
2023/10/10 09:09:00;;;;;;;37.70;11.90;;;19.60;94.80;;;;;;4247239;28;20450;-59
2023/10/10 09:11:02;;;;;;;33.53;11.30;;;19.70;94.60;;;;;;4247171;28;20047;-60
2023/10/10 09:13:12;;;;;;;28.40;10.98;;;19.70;94.30;;;;;;4247247;28;20070;-59
2023/10/10 09:15:20;;;;;;;24.52;11.38;;;19.80;94.10;;;;;;4247167;28;20203;-59
2023/10/10 09:17:32;;;;;;;30.05;11.10;;;19.80;94.00;;;;;;4246866;27;20039;-59
2023/10/10 09:19:41;;;;;;;28.05;10.88;;;19.80;93.90;;;;;;4247249;28;20043;-60
2023/10/10 09:21:56;;;;;;;28.60;10.40;;;19.90;93.90;;;;;;4246772;28;20044;-59
2023/10/10 09:24:26;;;;;;;27.30;10.68;;;20.00;93.80;;;;;;4247070;28;20067;-59
2023/10/10 09:28:43;;;;;;;18.80;9.52;;;20.10;93.60;;;;;;4246940;28;20126;-60
2023/10/10 09:30:58;;;;;;;29.23;11.20;;;20.20;93.40;;;;;;4247179;28;20494;-59
2023/10/10 09:35:28;;;;;;;28.42;11.18;;;20.30;93.20;;;;;;4247465;27;20051;-59
2023/10/10 09:37:35;;;;;;;38.55;11.20;;;20.40;93.20;;;;;;4250117;27;20058;-57
2023/10/10 09:39:37;;;;;;;23.88;10.40;;;20.40;93.10;;;;;;4250002;27;20489;-59
2023/10/10 09:46:53;;;;;;;38.00;11.43;;;20.60;93.00;;;;;;4250299;27;20067;-59
2023/10/10 09:51:08;;;;;;;38.08;11.10;;;20.60;93.20;;;;;;4249629;27;20051;-59
2023/10/10 09:53:21;;;;;;;25.65;9.73;;;20.70;93.10;;;;;;4250023;27;20076;-58
2023/10/10 09:57:28;;;;;;;37.97;11.10;;;20.80;92.90;;;;;;4249757;27;20050;-59
2023/10/10 09:59:32;;;;;;;33.53;12.25;;;20.90;92.80;;;;;;4249567;27;20050;-58
2023/10/10 10:01:44;;;;;;;27.98;10.77;;;21.00;92.80;;;;;;4249882;27;20405;-59
2023/10/10 10:03:55;;;;;;;31.52;11.50;;;21.00;92.80;;;;;;4249892;27;20047;-59
2023/10/10 10:06:05;;;;;;;27.27;9.25;;;21.00;92.70;;;;;;4249047;27;20122;-59
2023/10/10 10:08:21;;;;;;;28.35;11.90;;;21.20;92.50;;;;;;4249664;27;20524;-59
2023/10/10 10:10:48;;;;;;;28.40;12.02;;;21.20;92.50;;;;;;4249422;27;20051;-59
2023/10/10 10:13:26;;;;;;;27.80;10.60;;;21.40;92.50;;;;;;4245449;27;20081;-59
2023/10/10 10:15:48;;;;;;;25.92;9.55;;;21.50;92.00;;;;;;4180065;28;20128;-57
2023/10/10 10:18:13;;;;;;;24.48;9.52;;;21.50;91.90;;;;;;4180120;28;20055;-57
2023/10/10 10:20:23;;;;;;;22.10;8.77;;;21.60;92.10;;;;;;4182336;28;20045;-57
2023/10/10 10:22:29;;;;;;;23.17;9.38;;;21.70;91.90;;;;;;4188061;28;20048;-55
2023/10/10 10:24:33;;;;;;;24.02;9.10;;;21.80;92.00;;;;;;4195589;28;20052;-55
2023/10/10 10:26:42;;;;;;;27.27;9.95;;;21.90;91.80;;;;;;4196247;28;20140;-56
2023/10/10 10:28:56;;;;;;;24.17;9.27;;;21.90;91.60;;;;;;4196597;28;20063;-56
2023/10/10 10:31:04;;;;;;;22.15;9.15;;;22.00;91.30;;;;;;4196491;28;20062;-55
2023/10/10 10:33:09;;;;;;;26.38;10.50;;;22.10;91.30;;;;;;4191268;28;20066;-55
2023/10/10 10:35:17;;;;;;;24.83;9.35;;;22.30;91.40;;;;;;4195526;28;20051;-56
2023/10/10 10:37:21;;;;;;;22.05;8.80;;;22.20;91.30;;;;;;4195585;28;20108;-55
2023/10/10 10:39:26;;;;;;;30.37;10.50;;;22.40;91.20;;;;;;4193017;28;20053;-56
2023/10/10 10:41:42;;;;;;;;;;;22.40;91.40;;;;;;4196064;28;20482;-55
2023/10/10 10:43:48;;;;;;;29.65;9.23;;;22.50;91.20;;;;;;4193309;28;19959;-56
2023/10/10 10:46:11;;;;;;;22.73;8.68;;;22.50;91.30;;;;;;4195833;28;20397;-56
2023/10/10 10:48:30;;;;;;;18.85;7.10;;;22.50;91.10;;;;;;4194795;28;20238;-56
2023/10/10 10:50:40;;;;;;;19.85;7.38;;;22.50;91.00;;;;;;4202807;27;20090;-61
2023/10/10 10:52:55;;;;;;;17.40;8.10;;;22.50;91.10;;;;;;4262634;27;20150;-56
2023/10/10 10:55:18;;;;;;;28.10;8.02;;;22.40;91.00;;;;;;4265674;27;20492;-57
2023/10/10 10:57:28;;;;;;;24.75;8.02;;;22.50;91.00;;;;;;4264475;27;20046;-57
2023/10/10 10:59:55;;;;;;;18.27;8.05;;;22.40;91.10;;;;;;4263800;27;20077;-60
2023/10/10 11:01:57;;;;;;;17.55;7.85;;;22.40;91.10;;;;;;4265115;27;20054;-55
2023/10/10 11:04:05;;;;;;;30.15;8.75;;;22.50;91.10;;;;;;4265269;27;20503;-54
2023/10/10 11:06:14;;;;;;;20.30;7.90;;;22.50;91.20;;;;;;4263017;27;20045;-55
2023/10/10 11:08:19;;;;;;;16.20;7.93;;;22.60;91.00;;;;;;4259682;27;20101;-55
2023/10/10 11:10:36;;;;;;;20.65;7.60;;;22.70;90.80;;;;;;4264669;27;20046;-55
2023/10/10 11:12:40;;;;;;;26.83;8.82;;;22.80;90.80;;;;;;4260080;27;20067;-54
2023/10/10 11:14:45;;;;;;;15.27;7.45;;;22.90;90.80;;;;;;4261496;27;20045;-55
2023/10/10 11:16:56;;;;;;;17.55;7.28;;;22.90;90.50;;;;;;4262548;27;20134;-57
2023/10/10 11:19:03;;;;;;;23.55;8.32;;;23.00;90.40;;;;;;4248672;27;20039;-58
2023/10/10 11:21:11;;;;;;;19.73;7.88;;;23.10;90.40;;;;;;4248181;27;20050;-57
2023/10/10 11:23:14;;;;;;;18.75;7.43;;;23.20;89.30;;;;;;4248980;27;20050;-58
2023/10/10 11:25:26;;;;;;;20.55;7.72;;;23.30;89.70;;;;;;4247790;27;20117;-57
2023/10/10 11:27:29;;;;;;;18.35;7.80;;;23.30;88.70;;;;;;4264844;27;20046;-57
2023/10/10 11:29:34;;;;;;;15.32;7.68;;;23.40;88.80;;;;;;4254379;27;20042;-62
2023/10/10 11:31:47;;;;;;;19.85;7.68;;;23.50;88.40;;;;;;4230794;27;20062;-58
2023/10/10 11:34:09;;;;;;;17.58;7.25;;;23.60;87.80;;;;;;4247778;27;20047;-56
2023/10/10 11:36:29;;;;;;;11.20;6.95;;;23.60;88.00;;;;;;4248714;27;20202;-56
2023/10/10 11:38:36;;;;;;;14.38;7.13;;;23.70;87.50;;;;;;4249044;27;20112;-59
2023/10/10 11:40:38;;;;;;;19.30;7.43;;;23.80;87.50;;;;;;4249050;27;20053;-55
2023/10/10 11:42:47;;;;;;;15.10;7.20;;;23.90;85.70;;;;;;4254108;27;20100;-56
2023/10/10 11:44:53;;;;;;;18.58;8.25;;;24.00;86.10;;;;;;4263794;27;20077;-56
2023/10/10 11:47:04;;;;;;;14.10;7.30;;;24.00;84.80;;;;;;4246964;27;20452;-56
2023/10/10 11:49:15;;;;;;;18.83;7.78;;;24.00;84.50;;;;;;4247204;27;20105;-55
2023/10/10 11:51:33;;;;;;;18.52;7.25;;;24.10;84.70;;;;;;4246801;27;20051;-55
2023/10/10 11:53:36;;;;;;;20.58;7.63;;;24.20;84.60;;;;;;4246838;27;20080;-58
2023/10/10 11:55:41;;;;;;;18.67;8.40;;;24.30;84.70;;;;;;4247045;27;20492;-56
2023/10/10 11:57:46;;;;;;;25.00;10.07;;;24.40;84.50;;;;;;4246860;27;20186;-55
2023/10/10 11:59:48;;;;;;;26.60;8.07;;;24.40;84.30;;;;;;4246061;27;20104;-55
2023/10/10 12:01:51;;;;;;;18.90;7.53;;;24.40;83.00;;;;;;4246439;27;20043;-55
2023/10/10 12:04:04;;;;;;;14.15;7.25;;;24.50;82.90;;;;;;4246863;27;20173;-55
2023/10/10 12:06:19;;;;;;;31.42;20.45;;;24.40;81.60;;;;;;4246632;27;20099;-56
2023/10/10 12:08:23;;;;;;;14.65;7.20;;;24.30;81.30;;;;;;4246806;27;20096;-56
2023/10/10 12:10:41;;;;;;;16.97;7.40;;;24.30;81.00;;;;;;4260434;27;20069;-55
2023/10/10 12:12:46;;;;;;;14.32;7.13;;;24.20;81.40;;;;;;4264138;27;20042;-57
2023/10/10 12:14:50;;;;;;;16.35;7.57;;;24.20;81.30;;;;;;4263709;27;20054;-62
2023/10/10 12:16:57;;;;;;;12.50;7.03;;;24.30;81.10;;;;;;4263778;27;20449;-58
2023/10/10 12:18:59;;;;;;;14.50;7.25;;;24.30;80.50;;;;;;4263941;27;20053;-58
2023/10/10 12:21:02;;;;;;;15.18;7.22;;;24.40;80.40;;;;;;4263922;27;20066;-58
2023/10/10 12:23:05;;;;;;;30.08;7.38;;;24.50;80.40;;;;;;4263858;27;20043;-56
2023/10/10 12:25:13;;;;;;;12.48;7.20;;;24.40;80.30;;;;;;4264321;27;20137;-58
2023/10/10 12:27:16;;;;;;;13.85;7.07;;;24.40;80.10;;;;;;4261423;27;20333;-63
2023/10/10 12:29:18;;;;;;;19.77;7.60;;;24.30;80.30;;;;;;4250442;27;20058;-58
2023/10/10 12:31:21;;;;;;;12.45;6.95;;;24.30;80.20;;;;;;4256141;27;20051;-57
2023/10/10 12:33:24;;;;;;;18.63;7.22;;;24.30;80.20;;;;;;4258734;27;20053;-57
2023/10/10 12:35:27;;;;;;;17.75;7.30;;;24.30;80.40;;;;;;4261840;27;20178;-58
2023/10/10 12:37:36;;;;;;;15.70;7.50;;;24.40;80.40;;;;;;4258915;27;20165;-57
2023/10/10 12:39:38;;;;;;;12.57;7.05;;;24.40;80.00;;;;;;4261487;27;20050;-60
2023/10/10 12:41:47;;;;;;;15.23;7.00;;;24.40;79.60;;;;;;4262410;27;20120;-59
2023/10/10 12:43:50;;;;;;;17.80;6.90;;;24.50;79.70;;;;;;4260640;27;20047;-56
2023/10/10 12:45:54;;;;;;;17.92;6.95;;;24.60;79.50;;;;;;4261308;27;20142;-58
2023/10/10 12:47:58;;;;;;;19.92;9.93;;;24.60;79.90;;;;;;4263482;27;20034;-60
2023/10/10 12:50:00;;;;;;;18.98;7.60;;;24.60;80.20;;;;;;4261028;27;20081;-55
2023/10/10 12:52:11;;;;;;;16.98;7.45;;;24.70;79.80;;;;;;4259528;27;20050;-58
2023/10/10 12:54:17;;;;;;;12.85;6.97;;;24.80;79.60;;;;;;4261245;27;20059;-58
2023/10/10 12:56:21;;;;;;;13.07;6.47;;;24.80;79.20;;;;;;4263233;27;20099;-55
2023/10/10 12:58:26;;;;;;;20.65;6.63;;;24.80;80.00;;;;;;4258097;27;20107;-57
2023/10/10 13:00:33;;;;;;;16.42;6.88;;;24.80;79.50;;;;;;4262990;27;20061;-63
2023/10/10 13:02:35;;;;;;;13.27;6.80;;;24.80;79.40;;;;;;4261730;27;20499;-58
2023/10/10 13:04:38;;;;;;;14.23;6.80;;;24.80;79.10;;;;;;4260079;27;20077;-57
2023/10/10 13:06:40;;;;;;;16.95;7.13;;;24.90;78.70;;;;;;4230809;28;20043;-58
2023/10/10 13:08:54;;;;;;;13.68;6.55;;;24.90;79.10;;;;;;4263403;27;20456;-56
2023/10/10 13:11:02;;;;;;;12.73;6.37;;;24.90;78.80;;;;;;4259562;27;20038;-57
2023/10/10 13:13:07;;;;;;;16.98;7.35;;;24.90;78.50;;;;;;4265197;27;20046;-58
2023/10/10 13:15:29;;;;;;;18.02;7.35;;;24.90;78.60;;;;;;4265220;27;20415;-58
2023/10/10 13:17:49;;;;;;;20.17;7.03;;;25.00;78.00;;;;;;4246295;27;20044;-58